Wetterdaten: Woche 30.04.07 - 06.05.07 (KW18)
Datum Zeit Temperatur Luftfeuchte Luftdruck Niederschlag
30.04.2007 00:00 13,8 C 43 % 1014 hPa 0,0 l/m
30.04.2007 01:00 12,6 C 48 % 1014 hPa 0,0 l/m
30.04.2007 02:00 11,6 C 52 % 1014 hPa 0,0 l/m
30.04.2007 03:00 10,5 C 58 % 1014 hPa 0,0 l/m
30.04.2007 04:00 9,5 C 62 % 1014 hPa 0,0 l/m
30.04.2007 05:00 8,5 C 62 % 1014 hPa 0,0 l/m
30.04.2007 06:00 7,4 C 64 % 1014 hPa 0,0 l/m
30.04.2007 07:00 8,3 C 56 % 1014 hPa 0,0 l/m
30.04.2007 08:00 10,3 C 48 % 1014 hPa 0,0 l/m
30.04.2007 09:00 12,6 C 46 % 1014 hPa 0,0 l/m
30.04.2007 10:00 14,8 C 42 % 1014 hPa 0,0 l/m
30.04.2007 11:00 15,9 C 41 % 1014 hPa 0,0 l/m
30.04.2007 12:00 17,2 C 38 % 1013 hPa 0,0 l/m
30.04.2007 13:00 18,0 C 38 % 1013 hPa 0,0 l/m
30.04.2007 14:00 19,0 C 35 % 1013 hPa 0,0 l/m
30.04.2007 15:00 19,8 C 33 % 1012 hPa 0,0 l/m
30.04.2007 16:00 19,9 C 32 % 1012 hPa 0,0 l/m
30.04.2007 17:00 19,7 C 30 % 1012 hPa 0,0 l/m
30.04.2007 18:00 19,0 C 29 % 1012 hPa 0,0 l/m
30.04.2007 19:00 17,4 C 28 % 1012 hPa 0,0 l/m
30.04.2007 20:00 15,7 C 29 % 1013 hPa 0,0 l/m
30.04.2007 21:00 14,3 C 30 % 1013 hPa 0,0 l/m
30.04.2007 22:00 12,5 C 35 % 1013 hPa 0,0 l/m
30.04.2007 23:00 11,5 C 38 % 1013 hPa 0,0 l/m
01.05.2007 00:00 10,5 C 40 % 1013 hPa 0,0 l/m
01.05.2007 01:00 9,5 C 41 % 1013 hPa 0,0 l/m
01.05.2007 02:00 8,6 C 43 % 1013 hPa 0,0 l/m
01.05.2007 03:00 7,7 C 45 % 1013 hPa 0,0 l/m
01.05.2007 04:00 6,5 C 48 % 1013 hPa 0,0 l/m
01.05.2007 05:00 5,5 C 50 % 1013 hPa 0,0 l/m
01.05.2007 06:00 5,0 C 51 % 1014 hPa 0,0 l/m
01.05.2007 07:00 6,1 C 50 % 1014 hPa 0,0 l/m
01.05.2007 08:00 8,6 C 43 % 1014 hPa 0,0 l/m
01.05.2007 09:00 11,2 C 39 % 1014 hPa 0,0 l/m
01.05.2007 10:00 13,8 C 34 % 1014 hPa 0,0 l/m
01.05.2007 11:00 15,8 C 28 % 1014 hPa 0,0 l/m
01.05.2007 12:00 17,0 C 26 % 1014 hPa 0,0 l/m
01.05.2007 13:00 18,0 C 25 % 1014 hPa 0,0 l/m
01.05.2007 14:00 18,8 C 24 % 1013 hPa 0,0 l/m
01.05.2007 15:00 19,1 C 24 % 1013 hPa 0,0 l/m
01.05.2007 16:00 19,5 C 24 % 1012 hPa 0,0 l/m
01.05.2007 17:00 19,2 C 24 % 1012 hPa 0,0 l/m
01.05.2007 18:00 18,6 C 24 % 1012 hPa 0,0 l/m
01.05.2007 19:00 17,1 C 25 % 1012 hPa 0,0 l/m
01.05.2007 20:00 15,5 C 28 % 1012 hPa 0,0 l/m
01.05.2007 21:00 13,8 C 35 % 1013 hPa 0,0 l/m
01.05.2007 22:00 12,5 C 37 % 1013 hPa 0,0 l/m
01.05.2007 23:00 11,5 C 40 % 1013 hPa 0,0 l/m
02.05.2007 00:00 10,4 C 41 % 1013 hPa 0,0 l/m
02.05.2007 01:00 9,5 C 41 % 1013 hPa 0,0 l/m
02.05.2007 02:00 8,7 C 44 % 1012 hPa 0,0 l/m
02.05.2007 03:00 8,0 C 45 % 1012 hPa 0,0 l/m
02.05.2007 04:00 7,1 C 41 % 1012 hPa 0,0 l/m
02.05.2007 05:00 6,3 C 40 % 1012 hPa 0,0 l/m
02.05.2007 06:00 5,7 C 41 % 1012 hPa 0,0 l/m
02.05.2007 07:00 6,5 C 39 % 1012 hPa 0,0 l/m
02.05.2007 08:00 8,3 C 37 % 1012 hPa 0,0 l/m
02.05.2007 09:00 10,3 C 36 % 1012 hPa 0,0 l/m
02.05.2007 10:00 12,2 C 35 % 1012 hPa 0,0 l/m
02.05.2007 11:00 14,1 C 33 % 1012 hPa 0,0 l/m
02.05.2007 12:00 15,6 C 32 % 1011 hPa 0,0 l/m
02.05.2007 13:00 17,3 C 29 % 1011 hPa 0,0 l/m
02.05.2007 14:00 18,5 C 28 % 1011 hPa 0,0 l/m
02.05.2007 15:00 19,2 C 27 % 1011 hPa 0,0 l/m
02.05.2007 16:00 19,6 C 26 % 1011 hPa 0,0 l/m
02.05.2007 17:00 19,5 C 26 % 1010 hPa 0,0 l/m
02.05.2007 18:00 18,4 C 27 % 1011 hPa 0,0 l/m
02.05.2007 19:00 17,6 C 28 % 1011 hPa 0,0 l/m
02.05.2007 20:00 16,5 C 29 % 1011 hPa 0,0 l/m
02.05.2007 21:00 14,7 C 34 % 1012 hPa 0,0 l/m
02.05.2007 22:00 13,5 C 37 % 1012 hPa 0,0 l/m
02.05.2007 23:00 12,5 C 38 % 1012 hPa 0,0 l/m
03.05.2007 00:00 11,6 C 40 % 1012 hPa 0,0 l/m
03.05.2007 01:00 11,0 C 41 % 1012 hPa 0,0 l/m
03.05.2007 02:00 10,3 C 44 % 1012 hPa 0,0 l/m
03.05.2007 03:00 9,9 C 47 % 1013 hPa 0,0 l/m
03.05.2007 04:00 9,6 C 47 % 1013 hPa 0,0 l/m
03.05.2007 05:00 8,8 C 50 % 1013 hPa 0,0 l/m
03.05.2007 06:00 7,7 C 56 % 1013 hPa 0,0 l/m
03.05.2007 07:00 8,3 C 58 % 1013 hPa 0,0 l/m
03.05.2007 08:00 11,2 C 48 % 1013 hPa 0,0 l/m
03.05.2007 09:00 13,5 C 42 % 1013 hPa 0,0 l/m
03.05.2007 10:00 15,4 C 37 % 1013 hPa 0,0 l/m
03.05.2007 11:00 16,1 C 36 % 1013 hPa 0,0 l/m
03.05.2007 12:00 18,0 C 34 % 1012 hPa 0,0 l/m
03.05.2007 13:00 19,3 C 33 % 1012 hPa 0,0 l/m
03.05.2007 14:00 20,0 C 29 % 1011 hPa 0,0 l/m
03.05.2007 15:00 19,9 C 30 % 1011 hPa 0,0 l/m
03.05.2007 16:00 19,6 C 30 % 1011 hPa 0,0 l/m
03.05.2007 17:00 17,6 C 35 % 1011 hPa 0,0 l/m
03.05.2007 18:00 14,1 C 61 % 1011 hPa 0,0 l/m
03.05.2007 19:00 13,2 C 65 % 1011 hPa 0,0 l/m
03.05.2007 20:00 12,8 C 67 % 1011 hPa 0,0 l/m
03.05.2007 21:00 12,2 C 72 % 1011 hPa 0,0 l/m
03.05.2007 22:00 11,8 C 71 % 1011 hPa 0,0 l/m
03.05.2007 23:00 11,9 C 68 % 1011 hPa 0,0 l/m
04.05.2007 00:00 11,4 C 65 % 1010 hPa 0,0 l/m
04.05.2007 01:00 10,1 C 68 % 1010 hPa 0,0 l/m
04.05.2007 02:00 9,3 C 65 % 1010 hPa 0,0 l/m
04.05.2007 03:00 8,7 C 67 % 1009 hPa 0,0 l/m
04.05.2007 04:00 8,1 C 70 % 1009 hPa 0,0 l/m
04.05.2007 05:00 7,4 C 73 % 1009 hPa 0,0 l/m
04.05.2007 06:00 7,3 C 74 % 1008 hPa 0,0 l/m
04.05.2007 07:00 8,7 C 74 % 1008 hPa 0,0 l/m
04.05.2007 08:00 11,4 C 65 % 1008 hPa 0,0 l/m
04.05.2007 09:00 14,1 C 54 % 1008 hPa 0,0 l/m
04.05.2007 10:00 15,6 C 46 % 1008 hPa 0,0 l/m
04.05.2007 11:00 16,5 C 42 % 1007 hPa 0,0 l/m
04.05.2007 12:00 16,9 C 40 % 1007 hPa 0,0 l/m
04.05.2007 13:00 17,6 C 40 % 1007 hPa 0,0 l/m
04.05.2007 14:00 18,0 C 39 % 1006 hPa 0,0 l/m
04.05.2007 15:00 18,0 C 39 % 1006 hPa 0,0 l/m
04.05.2007 16:00 18,0 C 39 % 1006 hPa 0,0 l/m
04.05.2007 17:00 17,9 C 37 % 1005 hPa 0,0 l/m
04.05.2007 18:00 17,6 C 39 % 1005 hPa 0,0 l/m
04.05.2007 19:00 17,2 C 43 % 1005 hPa 0,0 l/m
04.05.2007 20:00 16,6 C 45 % 1005 hPa 0,0 l/m
04.05.2007 21:00 15,3 C 56 % 1006 hPa 0,0 l/m
04.05.2007 22:00 12,9 C 78 % 1006 hPa 0,0 l/m
04.05.2007 23:00 12,0 C 85 % 1006 hPa 0,0 l/m
05.05.2007 00:00 11,6 C 85 % 1006 hPa 0,0 l/m
05.05.2007 01:00 11,3 C 88 % 1005 hPa 0,0 l/m
05.05.2007 02:00 11,0 C 90 % 1005 hPa 0,0 l/m
05.05.2007 03:00 10,8 C 93 % 1005 hPa 0,0 l/m
05.05.2007 04:00 10,8 C 95 % 1005 hPa 1,0 l/m
05.05.2007 05:00 10,8 C 96 % 1005 hPa 0,0 l/m
05.05.2007 06:00 10,9 C 96 % 1006 hPa 0,0 l/m
05.05.2007 07:00 11,0 C 96 % 1006 hPa 2,0 l/m
05.05.2007 08:00 10,9 C 97 % 1006 hPa 4,0 l/m
05.05.2007 09:00 10,9 C 97 % 1006 hPa 3,0 l/m
05.05.2007 10:00 11,1 C 96 % 1007 hPa 1,0 l/m
05.05.2007 11:00 11,7 C 93 % 1007 hPa 0,0 l/m
05.05.2007 12:00 11,7 C 92 % 1007 hPa 1,0 l/m
05.05.2007 13:00 11,5 C 93 % 1007 hPa 2,0 l/m
05.05.2007 14:00 11,2 C 94 % 1008 hPa 6,0 l/m
05.05.2007 15:00 11,1 C 96 % 1008 hPa 2,0 l/m
05.05.2007 16:00 11,2 C 96 % 1008 hPa 0,0 l/m
05.05.2007 17:00 12,3 C 90 % 1009 hPa 0,0 l/m
05.05.2007 18:00 12,4 C 84 % 1010 hPa 0,0 l/m
05.05.2007 19:00 12,3 C 83 % 1010 hPa 0,0 l/m
05.05.2007 20:00 11,8 C 86 % 1011 hPa 1,0 l/m
05.05.2007 21:00 11,2 C 89 % 1012 hPa 0,0 l/m
05.05.2007 22:00 10,7 C 92 % 1012 hPa 0,0 l/m
05.05.2007 23:00 10,6 C 94 % 1013 hPa 0,0 l/m
06.05.2007 00:00 10,6 C 95 % 1013 hPa 0,0 l/m
06.05.2007 01:00 10,4 C 94 % 1013 hPa 0,0 l/m
06.05.2007 02:00 10,2 C 92 % 1013 hPa 0,0 l/m
06.05.2007 03:00 10,0 C 93 % 1013 hPa 2,0 l/m
06.05.2007 04:00 9,9 C 95 % 1013 hPa 0,0 l/m
06.05.2007 05:00 9,8 C 95 % 1014 hPa 0,0 l/m
06.05.2007 06:00 9,8 C 94 % 1014 hPa 0,0 l/m
06.05.2007 07:00 10,0 C 94 % 1015 hPa 0,0 l/m
06.05.2007 08:00 10,5 C 92 % 1015 hPa 0,0 l/m
06.05.2007 09:00 11,5 C 87 % 1015 hPa 0,0 l/m
06.05.2007 10:00 13,0 C 79 % 1016 hPa 0,0 l/m
06.05.2007 11:00 14,8 C 63 % 1016 hPa 0,0 l/m
06.05.2007 12:00 16,4 C 45 % 1016 hPa 0,0 l/m
06.05.2007 13:00 17,0 C 40 % 1016 hPa 0,0 l/m
06.05.2007 14:00 16,7 C 42 % 1016 hPa 0,0 l/m
06.05.2007 15:00 15,5 C 67 % 1017 hPa 0,0 l/m
06.05.2007 16:00 15,8 C 71 % 1017 hPa 0,0 l/m
06.05.2007 17:00 15,5 C 75 % 1017 hPa 0,0 l/m
06.05.2007 18:00 15,6 C 73 % 1017 hPa 0,0 l/m
06.05.2007 19:00 14,9 C 76 % 1017 hPa 0,0 l/m
06.05.2007 20:00 13,6 C 78 % 1018 hPa 0,0 l/m
06.05.2007 21:00 12,3 C 82 % 1018 hPa 0,0 l/m
06.05.2007 22:00 11,5 C 86 % 1019 hPa 0,0 l/m
06.05.2007 23:00 10,5 C 87 % 1019 hPa 0,0 l/m
Min-Datum _ 01.05.07 01.05.07 04.05.07 -
_ Min-Zeit 06:29 14:35 16:06 -
Minimum _ 4,9 C 23 % 1005 hPa -
Max-Datum _ 03.05.07 05.05.07 06.05.07 05.05.07
_ Max-Zeit 14:42 08:24 22:52 14:38
Maximum _ 20,3 C 97 % 1019 hPa 6,0 l/m
Durchschnitt _ 13,0 C 55 % 1012 hPa #25,0 l/m

Durchschnitt Minimum Temp.12,5 C
Durchschnitt Maximum Temp.13,5 C